Time;durP1;ratioP1;P1;durP2;ratioP2;P2;SDS_P1;SDS_P2;PMS_P1;PMS_P2;Temp;Humidity;BMP_temperature;BMP_pressure;BME280_temperature;BME280_humidity;BME280_pressure;Samples;Min_cycle;Max_cycle;Signal;HPM_P1;HPM_P2
2021/12/03 00:00:54;;;;;;;4.72;3.00;;;3.90;72.20;;;;;;5088761;28;20073;-72
2021/12/03 00:03:20;;;;;;;3.58;2.88;;;3.90;72.30;;;;;;5072147;28;20021;-72
2021/12/03 00:05:47;;;;;;;5.75;3.20;;;3.90;72.30;;;;;;5071811;28;20044;-71
2021/12/03 00:08:13;;;;;;;10.10;2.97;;;3.90;72.30;;;;;;5071592;28;20024;-72
2021/12/03 00:10:40;;;;;;;3.33;2.92;;;3.90;72.30;;;;;;5051564;28;20024;-72
2021/12/03 00:13:07;;;;;;;3.92;3.05;;;3.90;72.30;;;;;;5066121;28;20103;-71
2021/12/03 00:15:34;;;;;;;5.82;2.95;;;4.00;72.40;;;;;;5068913;28;20031;-71
2021/12/03 00:18:00;;;;;;;3.15;2.85;;;3.90;72.50;;;;;;5071783;28;20028;-72
2021/12/03 00:20:26;;;;;;;5.20;3.08;;;4.00;72.60;;;;;;5071298;28;20029;-72
2021/12/03 00:22:56;;;;;;;4.18;3.03;;;4.20;72.80;;;;;;5071555;28;20106;-71
2021/12/03 00:25:23;;;;;;;7.75;3.60;;;4.00;72.60;;;;;;5072698;28;20113;-72
2021/12/03 00:27:49;;;;;;;5.30;3.47;;;4.00;72.40;;;;;;5070929;28;20033;-71
2021/12/03 00:30:17;;;;;;;5.70;3.40;;;4.00;72.40;;;;;;5072475;28;20036;-71
2021/12/03 00:32:43;;;;;;;4.55;3.05;;;4.00;72.40;;;;;;5073121;28;20487;-72
2021/12/03 00:35:11;;;;;;;6.38;3.65;;;4.00;72.40;;;;;;5069983;28;20387;-71
2021/12/03 00:37:38;;;;;;;5.38;3.13;;;4.00;72.30;;;;;;5072420;28;20027;-71
2021/12/03 00:40:06;;;;;;;10.95;5.93;;;4.00;72.30;;;;;;5055557;28;20032;-72
2021/12/03 00:42:32;;;;;;;7.07;3.78;;;4.00;72.30;;;;;;5072512;28;20381;-72
2021/12/03 00:44:58;;;;;;;4.22;3.45;;;4.00;72.30;;;;;;5055863;28;20511;-71
2021/12/03 00:47:26;;;;;;;4.18;3.60;;;4.00;72.30;;;;;;5058338;28;20056;-71
2021/12/03 00:49:51;;;;;;;4.20;3.17;;;4.00;72.40;;;;;;5075736;28;20501;-71
2021/12/03 00:52:17;;;;;;;5.53;3.42;;;4.00;72.40;;;;;;5058571;28;20036;-72
2021/12/03 00:54:43;;;;;;;6.40;3.90;;;4.00;72.40;;;;;;5071337;28;20035;-72
2021/12/03 00:57:09;;;;;;;5.25;3.90;;;4.00;72.30;;;;;;5075048;28;20144;-71
2021/12/03 00:59:36;;;;;;;7.75;4.10;;;4.00;72.30;;;;;;5074951;28;20439;-72
2021/12/03 01:02:02;;;;;;;6.03;3.50;;;4.00;72.20;;;;;;5075859;28;20056;-72
2021/12/03 01:04:28;;;;;;;4.85;3.08;;;4.00;72.10;;;;;;5074116;28;20051;-71
2021/12/03 01:06:53;;;;;;;3.97;3.28;;;4.00;72.10;;;;;;5076006;28;20103;-72
2021/12/03 01:09:21;;;;;;;7.57;3.78;;;4.00;72.10;;;;;;5065977;28;20044;-71
2021/12/03 01:11:48;;;;;;;6.57;4.00;;;4.00;72.20;;;;;;5076087;28;20112;-72
2021/12/03 01:14:13;;;;;;;7.35;3.35;;;4.10;72.10;;;;;;5074568;28;20039;-72
2021/12/03 01:16:39;;;;;;;6.00;3.70;;;4.00;72.00;;;;;;5075829;28;20036;-71
2021/12/03 01:19:05;;;;;;;4.85;3.40;;;3.90;72.00;;;;;;5057244;28;20028;-72
2021/12/03 01:21:31;;;;;;;4.78;3.10;;;3.90;72.10;;;;;;5057497;28;20028;-72
2021/12/03 01:23:57;;;;;;;5.22;3.17;;;3.90;72.10;;;;;;5074018;28;20373;-71
2021/12/03 01:26:23;;;;;;;3.60;3.30;;;3.90;72.10;;;;;;5057793;28;20485;-72
2021/12/03 01:28:50;;;;;;;4.57;3.22;;;3.90;72.10;;;;;;5056206;28;20373;-71
2021/12/03 01:31:17;;;;;;;5.50;3.35;;;4.00;72.20;;;;;;5073216;28;20036;-71
2021/12/03 01:33:45;;;;;;;5.03;3.30;;;3.90;72.20;;;;;;5074846;28;20123;-71
2021/12/03 01:36:11;;;;;;;6.10;3.08;;;3.90;72.10;;;;;;5063102;28;20385;-71
2021/12/03 01:38:36;;;;;;;5.15;3.05;;;3.90;72.10;;;;;;5067945;28;20054;-72
2021/12/03 01:41:03;;;;;;;3.63;3.30;;;3.90;72.10;;;;;;5073692;28;20108;-72
2021/12/03 01:43:29;;;;;;;4.40;2.92;;;3.90;72.10;;;;;;5075496;28;20020;-72
2021/12/03 01:46:00;;;;;;;5.30;2.95;;;3.90;72.10;;;;;;5065953;28;20048;-72
2021/12/03 01:48:27;;;;;;;3.03;2.65;;;3.80;71.80;;;;;;5058109;28;20099;-72
2021/12/03 01:50:53;;;;;;;6.45;3.30;;;3.90;71.80;;;;;;5073407;28;20078;-72
2021/12/03 01:53:23;;;;;;;5.97;2.85;;;3.80;71.80;;;;;;5074902;28;20108;-72
2021/12/03 01:55:49;;;;;;;6.38;3.20;;;3.90;72.00;;;;;;5073949;28;20032;-72
2021/12/03 01:58:16;;;;;;;3.42;2.60;;;3.80;72.00;;;;;;5075199;28;20542;-72
2021/12/03 02:00:53;;;;;;;3.70;2.55;;;3.90;72.00;;;;;;5073098;28;20033;-72
2021/12/03 02:03:22;;;;;;;5.05;2.92;;;3.90;71.90;;;;;;5075670;28;20020;-71
2021/12/03 02:05:48;;;;;;;5.22;3.40;;;3.90;71.90;;;;;;5076007;28;20032;-71
2021/12/03 02:08:14;;;;;;;4.63;3.30;;;3.90;71.70;;;;;;5080359;28;20028;-71
2021/12/03 02:10:41;;;;;;;6.47;3.40;;;3.90;71.60;;;;;;5073671;28;20025;-71
2021/12/03 02:13:07;;;;;;;5.22;3.47;;;3.90;71.60;;;;;;5073029;28;20108;-71
2021/12/03 02:15:33;;;;;;;6.03;3.50;;;3.90;71.70;;;;;;5051851;28;20389;-71
2021/12/03 02:17:59;;;;;;;3.38;2.90;;;3.90;71.80;;;;;;5073162;28;20024;-71
2021/12/03 02:20:25;;;;;;;7.65;3.10;;;4.00;71.80;;;;;;5056447;28;20481;-71
2021/12/03 02:22:51;;;;;;;6.28;3.92;;;4.00;71.70;;;;;;5073703;28;20451;-71
2021/12/03 02:25:23;;;;;;;6.50;4.22;;;4.00;71.70;;;;;;5060939;28;20182;-72
2021/12/03 02:27:54;;;;;;;8.32;3.67;;;4.00;71.60;;;;;;5073246;28;20028;-71
2021/12/03 02:30:21;;;;;;;4.95;3.20;;;4.00;71.40;;;;;;5074645;28;20039;-72
2021/12/03 02:32:49;;;;;;;4.88;3.67;;;4.00;71.40;;;;;;5072885;28;20101;-71
2021/12/03 02:35:16;;;;;;;5.50;3.53;;;4.00;71.30;;;;;;5063888;28;20112;-72
2021/12/03 02:37:42;;;;;;;7.15;3.88;;;4.00;71.40;;;;;;5072956;28;20016;-71
2021/12/03 02:40:09;;;;;;;7.53;3.92;;;4.00;71.50;;;;;;5055986;28;20028;-71
2021/12/03 02:42:35;;;;;;;5.50;3.53;;;4.10;71.50;;;;;;5070666;28;20043;-71
2021/12/03 02:45:01;;;;;;;9.48;4.10;;;4.10;72.00;;;;;;5073199;28;20032;-71
2021/12/03 02:47:26;;;;;;;4.35;3.33;;;4.10;71.60;;;;;;5072603;28;20021;-71
2021/12/03 02:49:52;;;;;;;4.35;3.15;;;4.10;71.50;;;;;;5055894;28;20439;-71
2021/12/03 02:52:18;;;;;;;4.93;3.42;;;4.40;71.50;;;;;;5073111;28;20383;-71
2021/12/03 02:54:43;;;;;;;4.35;3.90;;;4.10;71.30;;;;;;5073858;28;20028;-71
2021/12/03 02:57:09;;;;;;;4.78;3.45;;;4.10;71.30;;;;;;5071917;28;20408;-71
2021/12/03 02:59:35;;;;;;;5.45;3.05;;;4.10;71.30;;;;;;5072713;28;20373;-72
2021/12/03 03:02:02;;;;;;;6.05;3.13;;;4.10;71.20;;;;;;5072111;28;20052;-71
2021/12/03 03:04:28;;;;;;;5.38;3.30;;;4.10;71.20;;;;;;5056716;28;20036;-71
2021/12/03 03:06:54;;;;;;;4.38;3.30;;;4.20;71.30;;;;;;5063811;28;20391;-72
2021/12/03 03:09:20;;;;;;;4.45;3.17;;;4.20;71.10;;;;;;5073969;28;20016;-71
2021/12/03 03:11:46;;;;;;;4.15;3.58;;;4.20;71.10;;;;;;5072061;28;20082;-71
2021/12/03 03:14:12;;;;;;;6.38;3.30;;;4.20;71.10;;;;;;5072971;28;20024;-71
2021/12/03 03:16:38;;;;;;;4.53;2.85;;;4.10;71.00;;;;;;5070994;28;20024;-72
2021/12/03 03:19:12;;;;;;;10.27;3.50;;;4.10;71.00;;;;;;5072586;28;20021;-70
2021/12/03 03:21:39;;;;;;;5.28;3.70;;;4.10;70.70;;;;;;5058618;28;20020;-71
2021/12/03 03:24:07;;;;;;;4.00;3.17;;;4.10;70.70;;;;;;5070193;28;20032;-71
2021/12/03 03:26:37;;;;;;;6.20;3.38;;;4.10;70.70;;;;;;5048948;28;20036;-71
2021/12/03 03:29:05;;;;;;;4.38;3.50;;;4.00;70.50;;;;;;5062040;28;20028;-71
2021/12/03 03:31:33;;;;;;;7.53;3.15;;;4.00;70.60;;;;;;5072530;28;20395;-71
2021/12/03 03:33:59;;;;;;;6.05;3.95;;;4.00;70.70;;;;;;5071886;28;20130;-71
2021/12/03 03:36:25;;;;;;;3.92;3.00;;;4.00;70.90;;;;;;5069713;28;20053;-71
2021/12/03 03:38:51;;;;;;;3.92;3.08;;;4.00;71.00;;;;;;5072959;28;20099;-72
2021/12/03 03:41:17;;;;;;;4.50;3.38;;;4.00;71.10;;;;;;5069567;28;20652;-71
2021/12/03 03:43:43;;;;;;;3.83;3.42;;;4.00;70.90;;;;;;5053869;28;20024;-71
2021/12/03 03:46:09;;;;;;;4.55;3.33;;;3.90;70.70;;;;;;5054473;28;20058;-72
2021/12/03 03:48:34;;;;;;;4.72;3.55;;;3.90;70.70;;;;;;5073156;28;20023;-72
2021/12/03 03:51:00;;;;;;;5.30;3.42;;;3.90;70.80;;;;;;5072064;28;20020;-71
2021/12/03 03:53:26;;;;;;;6.50;3.50;;;3.90;70.80;;;;;;5054897;28;20024;-73
2021/12/03 03:55:52;;;;;;;8.35;3.45;;;4.10;70.80;;;;;;5072809;28;20099;-71
2021/12/03 03:58:18;;;;;;;5.97;3.85;;;3.90;70.70;;;;;;5072823;28;20071;-71
2021/12/03 04:00:44;;;;;;;4.90;3.38;;;4.00;70.90;;;;;;5054181;28;20384;-70
2021/12/03 04:03:11;;;;;;;6.18;3.38;;;3.90;70.80;;;;;;5071110;28;20037;-70
2021/12/03 04:05:37;;;;;;;5.38;3.47;;;3.80;70.80;;;;;;5072777;28;20033;-71
2021/12/03 04:08:03;;;;;;;5.03;3.30;;;4.00;70.90;;;;;;5054875;28;20458;-72
2021/12/03 04:10:28;;;;;;;5.32;3.50;;;3.80;70.80;;;;;;5072885;28;20023;-73
2021/12/03 04:12:54;;;;;;;6.93;4.07;;;3.80;71.00;;;;;;5066337;28;20051;-72
2021/12/03 04:15:20;;;;;;;6.43;4.15;;;3.80;71.10;;;;;;5055162;28;20040;-71
2021/12/03 04:17:47;;;;;;;8.32;4.18;;;3.90;71.30;;;;;;5052708;28;20025;-71
2021/12/03 04:20:14;;;;;;;4.15;3.45;;;3.90;71.20;;;;;;5064171;28;20480;-71
2021/12/03 04:22:41;;;;;;;5.68;3.75;;;4.10;71.30;;;;;;5072398;28;20036;-71
2021/12/03 04:25:09;;;;;;;6.20;4.20;;;3.90;71.20;;;;;;5071502;28;20451;-72
2021/12/03 04:27:35;;;;;;;6.85;4.57;;;3.90;71.10;;;;;;5058407;28;20103;-71
2021/12/03 04:30:02;;;;;;;5.55;3.72;;;3.90;70.90;;;;;;5034289;28;20529;-71
2021/12/03 04:32:28;;;;;;;5.50;4.00;;;3.90;71.10;;;;;;5066545;28;20350;-71
2021/12/03 04:34:54;;;;;;;4.63;3.70;;;4.00;71.20;;;;;;5072552;28;20028;-71
2021/12/03 04:37:20;;;;;;;4.78;3.42;;;4.00;71.10;;;;;;5072679;28;20078;-71
2021/12/03 04:39:46;;;;;;;3.50;3.15;;;4.00;71.10;;;;;;5072675;28;20021;-71
2021/12/03 04:42:14;;;;;;;5.07;3.80;;;4.00;70.90;;;;;;5072913;28;20397;-72
2021/12/03 04:44:40;;;;;;;5.55;3.70;;;4.00;70.80;;;;;;5050440;28;20511;-72
2021/12/03 04:47:06;;;;;;;5.57;3.78;;;4.20;70.90;;;;;;5052546;28;20037;-71
2021/12/03 04:49:32;;;;;;;6.97;3.78;;;4.00;70.60;;;;;;5044783;28;20476;-70
2021/12/03 04:51:58;;;;;;;9.23;3.72;;;4.00;70.60;;;;;;5072490;28;20119;-71
2021/12/03 04:54:25;;;;;;;4.93;3.95;;;4.00;70.50;;;;;;5072418;28;20096;-71
2021/12/03 04:56:52;;;;;;;7.43;3.58;;;3.90;70.20;;;;;;5072135;28;20559;-71
2021/12/03 04:59:17;;;;;;;4.55;3.63;;;3.90;70.10;;;;;;5072327;28;20103;-71
2021/12/03 05:01:43;;;;;;;6.57;4.10;;;3.80;70.20;;;;;;5054067;28;20071;-70
2021/12/03 05:04:09;;;;;;;6.10;3.90;;;4.10;70.40;;;;;;5061267;28;20462;-70
2021/12/03 05:09:20;;;;;;;4.35;3.22;;;3.80;70.40;;;;;;5072668;28;20380;-71
2021/12/03 05:11:46;;;;;;;4.78;3.83;;;3.80;70.20;;;;;;5054351;28;20097;-71
2021/12/03 05:14:12;;;;;;;6.07;4.03;;;3.80;69.70;;;;;;5072249;28;20446;-71
2021/12/03 05:16:38;;;;;;;5.18;4.03;;;4.00;70.30;;;;;;5072291;28;20028;-71
2021/12/03 05:19:04;;;;;;;5.55;3.97;;;3.70;70.20;;;;;;5071879;28;20392;-71
2021/12/03 05:21:29;;;;;;;8.35;4.22;;;3.70;70.20;;;;;;5072170;28;20029;-71
2021/12/03 05:23:55;;;;;;;6.88;3.92;;;3.70;70.20;;;;;;5072023;28;20035;-71
2021/12/03 05:26:22;;;;;;;6.53;3.90;;;3.70;70.20;;;;;;5054106;28;20043;-71
2021/12/03 05:28:47;;;;;;;4.65;3.70;;;3.70;70.10;;;;;;5072114;28;20033;-71
2021/12/03 05:31:13;;;;;;;5.78;3.80;;;3.70;70.10;;;;;;5072084;28;20082;-71
2021/12/03 05:33:39;;;;;;;5.38;3.92;;;3.70;70.10;;;;;;5071594;28;20040;-71
2021/12/03 05:36:05;;;;;;;6.13;3.78;;;3.70;70.10;;;;;;5054026;28;20029;-71
2021/12/03 05:38:30;;;;;;;5.28;3.33;;;3.60;70.10;;;;;;5053961;28;20453;-71
2021/12/03 05:40:56;;;;;;;5.80;3.72;;;3.70;70.20;;;;;;5072350;28;20056;-71
2021/12/03 05:43:22;;;;;;;6.00;3.47;;;3.60;69.90;;;;;;5075533;28;20025;-71
2021/12/03 05:45:48;;;;;;;6.05;4.10;;;3.60;70.10;;;;;;5057439;28;20045;-71
2021/12/03 05:48:14;;;;;;;5.57;4.28;;;3.60;70.00;;;;;;5057553;28;20082;-71
2021/12/03 05:50:41;;;;;;;4.78;3.83;;;3.60;70.10;;;;;;5075414;28;20028;-71
2021/12/03 05:53:07;;;;;;;5.50;3.92;;;3.60;70.20;;;;;;5057369;28;20025;-71
2021/12/03 05:55:33;;;;;;;8.25;4.45;;;3.60;70.30;;;;;;5057423;28;20503;-71
2021/12/03 05:57:59;;;;;;;5.72;4.15;;;3.60;70.30;;;;;;5074968;28;20052;-71
2021/12/03 06:00:28;;;;;;;5.93;4.00;;;3.60;70.40;;;;;;5074789;28;22099;-71
2021/12/03 06:02:55;;;;;;;5.15;4.18;;;3.60;70.20;;;;;;5057258;28;20028;-71
2021/12/03 06:05:23;;;;;;;7.47;4.68;;;3.80;70.40;;;;;;5073670;28;20040;-71
2021/12/03 06:07:49;;;;;;;6.38;4.80;;;3.60;70.40;;;;;;5075139;28;20020;-70
2021/12/03 06:10:15;;;;;;;7.18;4.90;;;3.60;70.60;;;;;;5073820;28;20024;-71
2021/12/03 06:12:41;;;;;;;6.72;4.80;;;3.70;70.50;;;;;;5073651;28;20377;-71
2021/12/03 06:15:07;;;;;;;8.63;5.68;;;3.70;70.60;;;;;;5074886;28;20074;-71
2021/12/03 06:17:33;;;;;;;8.07;5.72;;;3.70;70.60;;;;;;5057047;28;20025;-71
2021/12/03 06:19:58;;;;;;;10.05;6.15;;;4.00;70.80;;;;;;5074657;28;20389;-71
2021/12/03 06:22:24;;;;;;;7.32;5.28;;;3.80;70.80;;;;;;5075106;28;20071;-71
2021/12/03 06:24:50;;;;;;;8.60;5.45;;;3.80;70.80;;;;;;5074803;28;20385;-71
2021/12/03 06:27:15;;;;;;;9.77;5.45;;;3.80;70.60;;;;;;5056920;28;20447;-71
2021/12/03 06:29:41;;;;;;;8.45;5.97;;;3.80;70.50;;;;;;5074481;28;20459;-70
2021/12/03 06:32:09;;;;;;;12.60;6.43;;;3.80;70.50;;;;;;5074504;28;20039;-71
2021/12/03 06:34:35;;;;;;;7.97;6.13;;;3.80;70.60;;;;;;5056546;28;20016;-71
2021/12/03 06:37:01;;;;;;;8.73;6.13;;;3.80;70.50;;;;;;5056519;28;20029;-71
2021/12/03 06:39:27;;;;;;;9.20;6.68;;;3.80;70.50;;;;;;5074626;28;20035;-71
2021/12/03 06:41:53;;;;;;;8.02;5.85;;;4.00;70.70;;;;;;5074576;28;20021;-71
2021/12/03 06:44:18;;;;;;;11.85;7.40;;;4.00;70.80;;;;;;5056510;28;20028;-71
2021/12/03 06:46:44;;;;;;;11.70;7.03;;;3.90;70.70;;;;;;5074134;28;20484;-71
2021/12/03 06:49:10;;;;;;;10.57;6.25;;;3.90;70.80;;;;;;5057350;28;20028;-70
2021/12/03 06:51:41;;;;;;;9.13;6.22;;;3.90;70.70;;;;;;5074351;28;20111;-70
2021/12/03 06:54:09;;;;;;;9.23;6.03;;;3.90;70.70;;;;;;5055927;28;20108;-70
2021/12/03 06:56:52;;;;;;;10.70;6.90;;;3.90;70.70;;;;;;5056563;28;20048;-70
2021/12/03 06:59:20;;;;;;;10.38;6.35;;;3.90;70.80;;;;;;5056764;28;20450;-71
2021/12/03 07:01:46;;;;;;;7.68;6.32;;;3.90;70.80;;;;;;5073960;28;20076;-70
2021/12/03 07:04:12;;;;;;;7.70;5.78;;;3.90;70.90;;;;;;5073936;28;20103;-71
2021/12/03 07:06:38;;;;;;;9.65;6.05;;;3.90;71.00;;;;;;5069258;28;20249;-71
2021/12/03 07:09:05;;;;;;;9.13;6.75;;;3.90;71.00;;;;;;5070552;28;20055;-71
2021/12/03 07:11:33;;;;;;;9.82;6.57;;;3.90;71.00;;;;;;5055610;28;20052;-70
2021/12/03 07:13:59;;;;;;;7.95;6.43;;;3.90;71.10;;;;;;5073863;28;20048;-70
2021/12/03 07:16:26;;;;;;;13.90;6.90;;;3.90;71.30;;;;;;5073867;28;20032;-70
2021/12/03 07:18:51;;;;;;;13.57;6.78;;;3.90;71.30;;;;;;5055850;28;20020;-71
2021/12/03 07:21:17;;;;;;;10.88;7.78;;;4.00;71.30;;;;;;5073859;28;20020;-71
2021/12/03 07:23:43;;;;;;;12.07;7.45;;;4.00;71.20;;;;;;5073835;28;20032;-71
2021/12/03 07:26:09;;;;;;;12.65;8.15;;;4.00;71.10;;;;;;5055397;28;20123;-70
2021/12/03 07:28:35;;;;;;;14.35;8.68;;;4.00;71.00;;;;;;5073492;28;20025;-71
2021/12/03 07:31:01;;;;;;;14.57;8.77;;;4.00;71.00;;;;;;5073417;28;20032;-70
2021/12/03 07:33:29;;;;;;;9.32;7.07;;;4.00;70.90;;;;;;5055570;28;20123;-71
2021/12/03 07:35:56;;;;;;;18.20;10.50;;;4.10;70.90;;;;;;5055248;28;20078;-70
2021/12/03 07:38:22;;;;;;;10.45;6.55;;;4.10;70.60;;;;;;5073485;28;20435;-71
2021/12/03 07:40:49;;;;;;;24.15;14.23;;;4.10;70.60;;;;;;5073014;28;20381;-71
2021/12/03 07:43:18;;;;;;;13.88;9.23;;;4.10;70.50;;;;;;5055265;28;20025;-71
2021/12/03 07:45:45;;;;;;;13.98;8.77;;;4.10;70.60;;;;;;5073354;28;20079;-71
2021/12/03 07:48:11;;;;;;;10.50;7.32;;;4.10;71.30;;;;;;5055260;28;20972;-70
2021/12/03 07:50:39;;;;;;;13.88;7.75;;;4.10;70.70;;;;;;5073278;28;20052;-71
2021/12/03 07:53:06;;;;;;;10.98;6.88;;;4.10;70.70;;;;;;5073267;28;20024;-71
2021/12/03 07:55:32;;;;;;;11.95;6.95;;;4.20;70.80;;;;;;5072619;28;20040;-70
2021/12/03 07:57:58;;;;;;;8.32;6.05;;;4.20;70.70;;;;;;5072810;28;20400;-70
2021/12/03 08:00:24;;;;;;;9.15;5.88;;;4.20;70.60;;;;;;5071560;28;20028;-71
2021/12/03 08:02:50;;;;;;;7.88;5.57;;;4.30;70.70;;;;;;5073002;28;20028;-71
2021/12/03 08:05:16;;;;;;;8.10;5.53;;;4.20;70.50;;;;;;5071958;28;20028;-71
2021/12/03 08:07:46;;;;;;;8.23;5.40;;;4.30;70.50;;;;;;5072867;28;20025;-71
2021/12/03 08:10:12;;;;;;;10.85;6.22;;;4.30;70.50;;;;;;5054546;28;20024;-71
2021/12/03 08:12:42;;;;;;;10.95;7.03;;;4.60;70.70;;;;;;5072904;28;20036;-71
2021/12/03 08:15:09;;;;;;;8.18;5.70;;;4.30;70.50;;;;;;5072734;28;20028;-70
2021/12/03 08:17:35;;;;;;;9.57;6.00;;;4.40;70.40;;;;;;5054334;28;20377;-71
2021/12/03 08:20:01;;;;;;;8.88;5.55;;;4.40;70.20;;;;;;5072769;28;20029;-71
2021/12/03 08:22:27;;;;;;;8.82;5.43;;;4.40;70.20;;;;;;5052405;28;20021;-71
2021/12/03 08:24:54;;;;;;;9.57;5.32;;;4.40;69.90;;;;;;5072216;28;20028;-71
2021/12/03 08:27:20;;;;;;;7.47;5.63;;;4.50;69.90;;;;;;5072806;28;20028;-71
2021/12/03 08:29:45;;;;;;;11.73;5.70;;;4.50;69.90;;;;;;5072672;28;20104;-71
2021/12/03 08:32:11;;;;;;;9.10;5.50;;;4.50;69.80;;;;;;5054649;28;20384;-70
2021/12/03 08:34:38;;;;;;;8.65;5.50;;;4.50;69.80;;;;;;5054538;28;20017;-71
2021/12/03 08:37:06;;;;;;;8.02;5.40;;;4.70;69.70;;;;;;5054526;28;20076;-71
2021/12/03 08:39:31;;;;;;;6.70;4.68;;;4.60;69.40;;;;;;5054351;28;20487;-70
2021/12/03 08:41:57;;;;;;;9.35;5.10;;;4.60;69.00;;;;;;5072919;28;20032;-70
2021/12/03 08:44:24;;;;;;;8.38;4.68;;;4.60;69.00;;;;;;5072426;28;20023;-70
2021/12/03 08:47:03;;;;;;;7.90;4.95;;;4.60;69.10;;;;;;5072619;28;20123;-71
2021/12/03 08:49:36;;;;;;;7.28;5.20;;;4.60;68.90;;;;;;5072557;28;20552;-70
2021/12/03 08:54:51;;;;;;;8.75;4.88;;;4.70;68.90;;;;;;5072053;28;20021;-70
2021/12/03 08:57:22;;;;;;;7.38;4.88;;;4.70;69.00;;;;;;5072359;28;20052;-71
2021/12/03 08:59:50;;;;;;;6.18;4.68;;;4.80;68.90;;;;;;5072496;28;20476;-70
2021/12/03 09:02:16;;;;;;;7.20;4.38;;;4.80;68.90;;;;;;5053673;28;20078;-70
2021/12/03 09:04:41;;;;;;;5.25;4.43;;;4.90;69.00;;;;;;5072175;28;20028;-70
2021/12/03 09:07:07;;;;;;;4.10;3.25;;;4.90;68.60;;;;;;5072379;28;20040;-70
2021/12/03 09:09:33;;;;;;;7.22;3.80;;;5.10;68.40;;;;;;5072269;28;20096;-70
2021/12/03 09:11:58;;;;;;;5.05;3.83;;;5.00;68.00;;;;;;5049572;28;20029;-70
2021/12/03 09:14:30;;;;;;;5.57;3.88;;;5.20;67.80;;;;;;5064669;28;20384;-70
2021/12/03 09:17:18;;;;;;;5.38;4.00;;;5.10;67.40;;;;;;5055784;28;20029;-70
2021/12/03 09:25:01;;;;;;;5.32;3.95;;;5.30;67.60;;;;;;5075975;28;20230;-75
2021/12/03 09:27:27;;;;;;;6.20;3.65;;;5.40;67.10;;;;;;5075809;28;20029;-74
2021/12/03 09:29:55;;;;;;;5.75;3.85;;;5.40;66.60;;;;;;5056186;28;20035;-75
2021/12/03 09:32:24;;;;;;;5.32;4.20;;;5.40;66.50;;;;;;5077133;28;20476;-74
2021/12/03 09:34:50;;;;;;;5.78;3.40;;;5.50;66.60;;;;;;5059264;28;20459;-74
2021/12/03 09:37:16;;;;;;;5.50;3.50;;;5.60;66.70;;;;;;5057544;28;20492;-74
2021/12/03 09:39:44;;;;;;;6.95;3.53;;;5.60;66.30;;;;;;5075674;28;20033;-74
2021/12/03 09:42:10;;;;;;;3.42;2.88;;;5.70;65.90;;;;;;5075654;28;20043;-74
2021/12/03 09:44:41;;;;;;;6.65;3.55;;;5.70;66.00;;;;;;5057162;28;20481;-74
2021/12/03 09:47:07;;;;;;;4.15;3.15;;;5.80;65.20;;;;;;5057673;28;20032;-74
2021/12/03 09:49:34;;;;;;;4.38;3.10;;;5.80;64.60;;;;;;5075149;28;20038;-73
2021/12/03 09:54:46;;;;;;;3.95;3.15;;;5.80;64.90;;;;;;5064907;28;20390;-73
2021/12/03 09:57:18;;;;;;;4.85;3.15;;;5.80;64.80;;;;;;5067776;28;20047;-74
2021/12/03 10:13:35;;;;;;;6.07;4.20;;;6.00;65.00;;;;;;4973682;28;20530;-73
2021/12/03 10:18:58;;;;;;;3.92;3.00;;;6.20;64.40;;;;;;5074359;28;20032;-74
2021/12/03 10:41:17;;;;;;;3.67;2.75;;;6.10;62.20;;;;;;5073973;28;20025;-75
2021/12/03 10:46:42;;;;;;;4.22;2.55;;;5.90;62.10;;;;;;5063281;28;20520;-75
2021/12/03 11:20:50;;;;;;;3.28;2.30;;;5.90;62.00;;;;;;5068110;28;20384;-72
2021/12/03 12:18:13;;;;;;;5.63;1.88;;;6.70;61.50;;;;;;5071571;28;20033;-73
2021/12/03 13:24:42;;;;;;;4.80;1.85;;;6.50;60.20;;;;;;5072845;28;20059;-73
2021/12/03 13:27:23;;;;;;;5.65;4.03;;;6.50;59.90;;;;;;5071746;28;20477;-74
2021/12/03 14:44:10;;;;;;;5.95;2.20;;;5.70;60.40;;;;;;5071778;28;20044;-74
2021/12/03 14:52:03;;;;;;;4.53;2.20;;;5.50;60.70;;;;;;5069510;28;20380;-73
2021/12/03 14:54:47;;;;;;;3.10;2.38;;;5.50;60.80;;;;;;5063678;28;20123;-73
2021/12/03 14:57:28;;;;;;;4.47;2.58;;;5.40;60.70;;;;;;5062304;28;20052;-73
2021/12/03 15:03:12;;;;;;;4.35;2.75;;;5.40;60.30;;;;;;5072237;28;20127;-73
2021/12/03 15:08:49;;;;;;;5.35;3.00;;;5.30;61.00;;;;;;5071471;28;20496;-73
2021/12/03 15:19:16;;;;;;;5.75;3.72;;;5.20;61.50;;;;;;5062297;28;20113;-72
2021/12/03 15:33:06;;;;;;;3.33;2.45;;;5.10;62.10;;;;;;5069215;28;20488;-73
2021/12/03 16:10:26;;;;;;;8.05;3.95;;;4.60;63.10;;;;;;5075429;28;20028;-70
2021/12/03 16:13:08;;;;;;;4.65;3.55;;;4.50;63.30;;;;;;5067205;28;20032;-70
2021/12/03 16:43:36;;;;;;;7.65;5.38;;;4.30;64.00;;;;;;5069963;28;20081;-71
2021/12/03 16:52:31;;;;;;;9.50;4.93;;;4.10;64.50;;;;;;5085462;28;20039;-71
2021/12/03 16:54:57;;;;;;;5.47;3.88;;;4.10;64.50;;;;;;5071155;28;20473;-70
2021/12/03 16:57:31;;;;;;;9.50;4.97;;;4.10;64.50;;;;;;5070774;28;20143;-70
2021/12/03 16:59:59;;;;;;;7.43;4.38;;;4.10;64.50;;;;;;5070564;28;20095;-71
2021/12/03 17:02:33;;;;;;;6.85;4.25;;;4.10;64.60;;;;;;5073254;28;20035;-71
2021/12/03 17:16:05;;;;;;;7.38;4.45;;;4.00;64.80;;;;;;5071015;28;20078;-70
2021/12/03 17:21:38;;;;;;;13.90;7.13;;;3.90;64.90;;;;;;5070479;28;20097;-70
2021/12/03 17:58:35;;;;;;;14.38;6.93;;;3.60;65.30;;;;;;5058944;28;20050;-70
2021/12/03 18:01:16;;;;;;;15.68;7.22;;;3.90;65.60;;;;;;5052244;28;20024;-70
2021/12/03 18:06:47;;;;;;;8.68;4.88;;;3.60;65.50;;;;;;5071800;28;20060;-70
2021/12/03 18:09:42;;;;;;;9.98;4.32;;;3.50;65.50;;;;;;5074166;28;20017;-71
2021/12/03 18:55:13;;;;;;;8.77;5.18;;;3.40;66.40;;;;;;5073225;28;20495;-70
2021/12/03 18:57:43;;;;;;;10.25;5.43;;;3.40;66.30;;;;;;5054318;28;20552;-70
2021/12/03 19:00:12;;;;;;;13.57;7.03;;;3.50;66.40;;;;;;5073582;28;20032;-70
2021/12/03 19:02:44;;;;;;;10.13;6.05;;;3.40;66.50;;;;;;5070430;28;20026;-70
2021/12/03 19:10:14;;;;;;;10.10;6.07;;;3.30;66.40;;;;;;5094187;28;20016;-70
2021/12/03 19:12:43;;;;;;;18.98;7.63;;;3.30;66.50;;;;;;5041256;28;20123;-70
2021/12/03 19:15:10;;;;;;;11.77;6.57;;;3.30;66.60;;;;;;5053759;28;20024;-70
2021/12/03 19:17:38;;;;;;;13.30;7.13;;;3.30;66.60;;;;;;5071529;28;20082;-71
2021/12/03 19:20:11;;;;;;;10.70;6.65;;;3.30;66.60;;;;;;5055523;28;20094;-71
2021/12/03 19:22:37;;;;;;;14.20;8.57;;;3.30;66.70;;;;;;5054142;28;20030;-70
2021/12/03 19:25:03;;;;;;;17.48;8.85;;;3.30;66.70;;;;;;5070342;28;20036;-71
2021/12/03 19:27:29;;;;;;;18.63;7.80;;;3.30;66.70;;;;;;5066244;28;20024;-71
2021/12/03 19:29:57;;;;;;;10.20;6.85;;;3.30;66.70;;;;;;5072167;28;20074;-71
2021/12/03 19:32:26;;;;;;;12.93;6.95;;;3.30;66.70;;;;;;5055143;28;20032;-71
2021/12/03 19:34:51;;;;;;;9.10;6.55;;;3.20;66.80;;;;;;5071876;28;20020;-71
2021/12/03 19:37:17;;;;;;;11.40;6.68;;;3.50;66.80;;;;;;5054840;28;20029;-71
2021/12/03 19:39:43;;;;;;;12.60;7.28;;;3.20;66.60;;;;;;5052164;28;20369;-71
2021/12/03 19:42:55;;;;;;;9.05;6.75;;;3.20;66.80;;;;;;5055390;28;20028;-70
2021/12/03 19:45:03;;;;;;;9.57;6.90;;;3.20;66.90;;;;;;5072532;28;20460;-71
2021/12/03 19:53:09;;;;;;;;;;;3.10;67.00;;;;;;5071906;28;20086;-71
2021/12/03 19:55:39;;;;;;;10.90;6.63;;;3.10;67.30;;;;;;5055020;28;19916;-70
2021/12/03 19:58:06;;;;;;;13.13;7.63;;;3.10;66.80;;;;;;5053549;28;20048;-71
2021/12/03 20:00:32;;;;;;;17.83;9.77;;;3.10;67.00;;;;;;5060790;28;20028;-71
2021/12/03 20:02:57;;;;;;;19.83;9.50;;;3.00;67.00;;;;;;5056070;28;20041;-71
2021/12/03 20:05:23;;;;;;;16.90;9.98;;;3.00;67.10;;;;;;5053170;28;20025;-71
2021/12/03 20:07:51;;;;;;;14.77;9.02;;;3.00;67.20;;;;;;5054660;28;20064;-71
2021/12/03 20:10:19;;;;;;;15.98;8.15;;;3.00;67.40;;;;;;5054168;28;20035;-71
2021/12/03 20:12:50;;;;;;;12.00;7.90;;;3.20;67.50;;;;;;5072110;28;20077;-71
2021/12/03 20:15:35;;;;;;;12.35;7.63;;;3.00;67.40;;;;;;5071910;28;20465;-71
2021/12/03 20:18:23;;;;;;;15.38;7.07;;;3.00;67.50;;;;;;5067030;28;20119;-71
2021/12/03 20:20:49;;;;;;;14.82;7.18;;;2.90;67.50;;;;;;5055073;28;20055;-71
2021/12/03 20:23:40;;;;;;;11.60;6.80;;;2.90;67.50;;;;;;5070547;28;20392;-71
2021/12/03 20:31:06;;;;;;;15.10;7.32;;;2.90;67.60;;;;;;5077203;28;20116;-71
2021/12/03 20:36:39;;;;;;;9.67;5.27;;;2.90;67.70;;;;;;5056267;28;20143;-71
2021/12/03 20:39:14;;;;;;;10.23;6.20;;;2.90;67.70;;;;;;5070484;28;20275;-71
2021/12/03 20:47:49;;;;;;;15.23;7.47;;;2.90;67.80;;;;;;5071957;28;20044;-70
2021/12/03 20:52:53;;;;;;;20.65;8.43;;;2.90;67.60;;;;;;5072273;28;20029;-71
2021/12/03 21:08:33;;;;;;;17.60;7.55;;;3.00;67.70;;;;;;5071723;28;20550;-71
2021/12/03 21:11:05;;;;;;;11.77;6.78;;;3.00;67.60;;;;;;5083328;28;20669;-71
2021/12/03 21:13:36;;;;;;;13.23;7.05;;;3.00;67.70;;;;;;5057327;28;20032;-71
2021/12/03 21:16:42;;;;;;;11.88;7.10;;;3.00;67.80;;;;;;5074461;28;20111;-71
2021/12/03 21:21:33;;;;;;;14.70;8.50;;;3.00;67.80;;;;;;5074033;28;20044;-70
2021/12/03 21:24:00;;;;;;;9.88;7.07;;;3.00;67.80;;;;;;5075253;28;20056;-70
2021/12/03 21:26:30;;;;;;;12.98;7.90;;;3.00;67.90;;;;;;5056314;28;20036;-70
2021/12/03 21:40:53;;;;;;;5.15;4.00;;;3.10;67.90;;;;;;5074380;28;20039;-71
2021/12/03 21:42:31;;;;;;;9.27;5.15;;;3.20;67.80;;;;;;5064636;28;20058;-71
2021/12/03 21:44:56;;;;;;;7.18;4.82;;;3.20;67.80;;;;;;5068901;28;20031;-70